sensor_id;sensor_type;location;lat;lon;timestamp;pressure;altitude;pressure_sealevel;temperature;humidity
63535;BME280;55128;50.230;18.944;2023-12-22T00:02:45;95467.72;;;5.72;82.83
63535;BME280;55128;50.230;18.944;2023-12-22T00:07:46;95475.84;;;5.80;82.82
63535;BME280;55128;50.230;18.944;2023-12-22T00:12:46;95479.06;;;5.83;82.84
63535;BME280;55128;50.230;18.944;2023-12-22T00:17:47;95482.78;;;5.92;81.83
63535;BME280;55128;50.230;18.944;2023-12-22T00:22:47;95484.00;;;5.99;81.87
63535;BME280;55128;50.230;18.944;2023-12-22T00:27:48;95495.22;;;5.68;82.23
63535;BME280;55128;50.230;18.944;2023-12-22T00:32:48;95511.13;;;5.66;82.02
63535;BME280;55128;50.230;18.944;2023-12-22T00:37:48;95529.41;;;5.56;82.56
63535;BME280;55128;50.230;18.944;2023-12-22T00:42:49;95523.53;;;5.53;80.83
63535;BME280;55128;50.230;18.944;2023-12-22T00:47:49;95520.19;;;5.51;79.94
63535;BME280;55128;50.230;18.944;2023-12-22T00:52:49;95538.03;;;5.70;79.82
63535;BME280;55128;50.230;18.944;2023-12-22T00:57:49;95538.63;;;5.62;80.54
63535;BME280;55128;50.230;18.944;2023-12-22T01:02:50;95550.78;;;5.52;81.05
63535;BME280;55128;50.230;18.944;2023-12-22T01:07:50;95557.16;;;5.60;80.29
63535;BME280;55128;50.230;18.944;2023-12-22T01:12:50;95555.34;;;5.50;80.07
63535;BME280;55128;50.230;18.944;2023-12-22T01:17:51;95560.41;;;5.29;80.00
63535;BME280;55128;50.230;18.944;2023-12-22T01:22:51;95587.94;;;5.12;80.32
63535;BME280;55128;50.230;18.944;2023-12-22T01:27:51;95591.09;;;5.17;80.12
63535;BME280;55128;50.230;18.944;2023-12-22T01:32:52;95591.34;;;5.25;80.53
63535;BME280;55128;50.230;18.944;2023-12-22T01:37:53;95594.94;;;5.24;80.52
63535;BME280;55128;50.230;18.944;2023-12-22T01:42:54;95601.16;;;5.23;79.74
63535;BME280;55128;50.230;18.944;2023-12-22T01:47:55;95587.03;;;5.13;79.79
63535;BME280;55128;50.230;18.944;2023-12-22T01:52:56;95591.19;;;5.15;80.07
63535;BME280;55128;50.230;18.944;2023-12-22T01:57:56;95580.69;;;5.15;79.82
63535;BME280;55128;50.230;18.944;2023-12-22T02:02:56;95572.84;;;5.02;78.88
63535;BME280;55128;50.230;18.944;2023-12-22T02:07:57;95565.59;;;4.82;79.14
63535;BME280;55128;50.230;18.944;2023-12-22T02:12:58;95555.91;;;4.58;79.22
63535;BME280;55128;50.230;18.944;2023-12-22T02:18:02;95571.03;;;4.67;78.44
63535;BME280;55128;50.230;18.944;2023-12-22T02:23:06;95575.94;;;4.72;78.57
63535;BME280;55128;50.230;18.944;2023-12-22T02:28:09;95554.41;;;4.67;77.49
63535;BME280;55128;50.230;18.944;2023-12-22T02:33:12;95565.59;;;4.82;76.96
63535;BME280;55128;50.230;18.944;2023-12-22T02:38:16;95554.34;;;4.80;75.99
63535;BME280;55128;50.230;18.944;2023-12-22T02:43:16;95552.75;;;4.66;75.29
63535;BME280;55128;50.230;18.944;2023-12-22T02:48:17;95574.50;;;4.92;74.18
63535;BME280;55128;50.230;18.944;2023-12-22T02:53:18;95573.81;;;4.77;73.13
63535;BME280;55128;50.230;18.944;2023-12-22T02:58:19;95572.91;;;4.90;72.04
63535;BME280;55128;50.230;18.944;2023-12-22T03:03:19;95578.56;;;4.96;70.31
63535;BME280;55128;50.230;18.944;2023-12-22T03:08:19;95589.50;;;4.66;70.20
63535;BME280;55128;50.230;18.944;2023-12-22T03:13:20;95571.06;;;4.55;70.13
63535;BME280;55128;50.230;18.944;2023-12-22T03:18:20;95577.56;;;4.62;69.84
63535;BME280;55128;50.230;18.944;2023-12-22T03:23:20;95569.53;;;4.63;68.70
63535;BME280;55128;50.230;18.944;2023-12-22T03:28:21;95577.94;;;4.68;68.86
63535;BME280;55128;50.230;18.944;2023-12-22T03:33:21;95575.56;;;4.65;69.08
63535;BME280;55128;50.230;18.944;2023-12-22T03:38:21;95564.59;;;4.72;69.05
63535;BME280;55128;50.230;18.944;2023-12-22T03:43:22;95571.28;;;4.76;68.11
63535;BME280;55128;50.230;18.944;2023-12-22T03:48:22;95574.84;;;4.75;68.05
63535;BME280;55128;50.230;18.944;2023-12-22T03:53:22;95580.69;;;4.91;67.97
63535;BME280;55128;50.230;18.944;2023-12-22T03:58:23;95582.47;;;4.91;66.91
63535;BME280;55128;50.230;18.944;2023-12-22T04:03:23;95572.28;;;4.86;66.78
63535;BME280;55128;50.230;18.944;2023-12-22T04:08:24;95550.53;;;4.84;68.19
63535;BME280;55128;50.230;18.944;2023-12-22T04:13:24;95551.69;;;4.93;67.96
63535;BME280;55128;50.230;18.944;2023-12-22T04:18:24;95550.94;;;4.91;67.55
63535;BME280;55128;50.230;18.944;2023-12-22T04:23:24;95558.38;;;4.97;66.28
63535;BME280;55128;50.230;18.944;2023-12-22T04:28:25;95573.38;;;5.07;65.76
63535;BME280;55128;50.230;18.944;2023-12-22T04:33:25;95652.25;;;4.95;68.71
63535;BME280;55128;50.230;18.944;2023-12-22T04:38:26;95662.38;;;2.92;79.39
63535;BME280;55128;50.230;18.944;2023-12-22T04:43:26;95672.09;;;2.34;82.90
63535;BME280;55128;50.230;18.944;2023-12-22T04:48:27;95670.06;;;2.25;84.57
63535;BME280;55128;50.230;18.944;2023-12-22T04:53:27;95680.97;;;2.18;84.94
63535;BME280;55128;50.230;18.944;2023-12-22T04:58:27;95670.88;;;2.11;85.17
63535;BME280;55128;50.230;18.944;2023-12-22T05:03:27;95666.13;;;2.04;85.80
63535;BME280;55128;50.230;18.944;2023-12-22T05:08:28;95703.69;;;2.03;86.40
63535;BME280;55128;50.230;18.944;2023-12-22T05:13:28;95692.81;;;1.94;86.56
63535;BME280;55128;50.230;18.944;2023-12-22T05:18:28;95694.84;;;1.89;87.44
63535;BME280;55128;50.230;18.944;2023-12-22T05:23:29;95673.97;;;2.04;87.17
63535;BME280;55128;50.230;18.944;2023-12-22T05:28:29;95656.31;;;2.07;86.80
63535;BME280;55128;50.230;18.944;2023-12-22T05:33:29;95663.66;;;1.86;87.38
63535;BME280;55128;50.230;18.944;2023-12-22T05:38:30;95672.09;;;2.06;87.48
63535;BME280;55128;50.230;18.944;2023-12-22T05:43:31;95662.47;;;2.06;87.02
63535;BME280;55128;50.230;18.944;2023-12-22T05:48:31;95661.38;;;2.10;86.84
63535;BME280;55128;50.230;18.944;2023-12-22T05:53:31;95651.56;;;2.14;86.68
63535;BME280;55128;50.230;18.944;2023-12-22T05:58:32;95651.38;;;2.03;85.87
63535;BME280;55128;50.230;18.944;2023-12-22T06:03:32;95663.28;;;1.92;83.79
63535;BME280;55128;50.230;18.944;2023-12-22T06:08:32;95663.22;;;1.94;83.22
63535;BME280;55128;50.230;18.944;2023-12-22T06:13:32;95672.06;;;1.77;83.12
63535;BME280;55128;50.230;18.944;2023-12-22T06:18:33;95685.91;;;1.93;84.12
63535;BME280;55128;50.230;18.944;2023-12-22T06:23:33;95690.22;;;2.09;84.06
63535;BME280;55128;50.230;18.944;2023-12-22T06:28:33;95681.22;;;1.99;84.50
63535;BME280;55128;50.230;18.944;2023-12-22T06:33:37;95686.31;;;2.16;84.74
63535;BME280;55128;50.230;18.944;2023-12-22T06:38:40;95700.06;;;2.20;84.29
63535;BME280;55128;50.230;18.944;2023-12-22T06:43:42;95729.47;;;2.23;84.44
63535;BME280;55128;50.230;18.944;2023-12-22T06:48:42;95705.47;;;2.17;84.17
63535;BME280;55128;50.230;18.944;2023-12-22T06:53:42;95724.69;;;2.16;85.21
63535;BME280;55128;50.230;18.944;2023-12-22T06:58:42;95705.56;;;2.44;85.25
63535;BME280;55128;50.230;18.944;2023-12-22T07:03:43;95708.56;;;2.38;84.53
63535;BME280;55128;50.230;18.944;2023-12-22T07:08:43;95704.91;;;2.40;83.90
63535;BME280;55128;50.230;18.944;2023-12-22T07:13:44;95705.00;;;2.39;84.38
63535;BME280;55128;50.230;18.944;2023-12-22T07:18:45;95704.53;;;2.46;84.33
63535;BME280;55128;50.230;18.944;2023-12-22T07:23:46;95703.97;;;3.11;83.40
63535;BME280;55128;50.230;18.944;2023-12-22T07:28:46;95721.50;;;4.57;81.65
63535;BME280;55128;50.230;18.944;2023-12-22T07:33:46;95725.84;;;4.95;77.68
63535;BME280;55128;50.230;18.944;2023-12-22T07:38:47;95730.69;;;3.85;78.47
63535;BME280;55128;50.230;18.944;2023-12-22T07:43:47;95730.03;;;3.82;78.94
63535;BME280;55128;50.230;18.944;2023-12-22T07:48:48;95733.56;;;3.68;78.82
63535;BME280;55128;50.230;18.944;2023-12-22T07:53:48;95743.72;;;4.00;78.37
63535;BME280;55128;50.230;18.944;2023-12-22T07:58:49;95738.59;;;4.24;78.25
63535;BME280;55128;50.230;18.944;2023-12-22T08:03:49;95733.13;;;4.14;78.29
63535;BME280;55128;50.230;18.944;2023-12-22T08:08:49;95723.00;;;3.82;77.64
63535;BME280;55128;50.230;18.944;2023-12-22T08:13:50;95724.03;;;3.40;78.84
63535;BME280;55128;50.230;18.944;2023-12-22T08:18:50;95720.41;;;3.28;78.91
63535;BME280;55128;50.230;18.944;2023-12-22T08:23:51;95746.69;;;3.26;79.62
63535;BME280;55128;50.230;18.944;2023-12-22T08:28:51;95753.66;;;3.27;79.88
63535;BME280;55128;50.230;18.944;2023-12-22T08:33:51;95769.69;;;3.08;80.20
63535;BME280;55128;50.230;18.944;2023-12-22T08:38:51;95776.50;;;3.11;81.18
63535;BME280;55128;50.230;18.944;2023-12-22T08:43:52;95757.56;;;3.35;81.58
63535;BME280;55128;50.230;18.944;2023-12-22T08:48:52;95757.13;;;3.55;81.76
63535;BME280;55128;50.230;18.944;2023-12-22T08:53:56;95760.94;;;4.04;80.04
63535;BME280;55128;50.230;18.944;2023-12-22T08:58:56;95757.22;;;3.94;79.02
63535;BME280;55128;50.230;18.944;2023-12-22T09:03:59;95747.44;;;3.70;79.33
63535;BME280;55128;50.230;18.944;2023-12-22T09:08:59;95736.19;;;3.68;79.02
63535;BME280;55128;50.230;18.944;2023-12-22T09:13:59;95722.81;;;3.85;79.07
63535;BME280;55128;50.230;18.944;2023-12-22T09:19:00;95735.09;;;3.85;79.07
63535;BME280;55128;50.230;18.944;2023-12-22T09:24:00;95745.78;;;3.82;78.65
63535;BME280;55128;50.230;18.944;2023-12-22T09:29:00;95737.88;;;3.69;77.84
63535;BME280;55128;50.230;18.944;2023-12-22T09:34:01;95726.25;;;3.86;78.18
63535;BME280;55128;50.230;18.944;2023-12-22T09:39:02;95728.97;;;3.84;78.19
63535;BME280;55128;50.230;18.944;2023-12-22T09:44:03;95735.53;;;4.04;78.34
63535;BME280;55128;50.230;18.944;2023-12-22T09:49:07;95752.81;;;4.47;77.13
63535;BME280;55128;50.230;18.944;2023-12-22T09:54:08;95755.94;;;4.26;75.27
63535;BME280;55128;50.230;18.944;2023-12-22T09:59:11;95743.13;;;4.60;75.25
63535;BME280;55128;50.230;18.944;2023-12-22T10:04:13;95731.72;;;6.43;72.50
63535;BME280;55128;50.230;18.944;2023-12-22T10:09:16;95717.25;;;6.02;69.87
63535;BME280;55128;50.230;18.944;2023-12-22T10:14:16;95716.97;;;5.45;71.33
63535;BME280;55128;50.230;18.944;2023-12-22T10:19:22;95704.75;;;5.20;69.54
63535;BME280;55128;50.230;18.944;2023-12-22T10:24:41;95695.94;;;5.09;69.97
63535;BME280;55128;50.230;18.944;2023-12-22T10:34:51;95702.56;;;4.77;70.76
63535;BME280;55128;50.230;18.944;2023-12-22T10:39:54;95713.91;;;4.78;70.91
63535;BME280;55128;50.230;18.944;2023-12-22T10:44:56;95721.06;;;4.12;76.07
63535;BME280;55128;50.230;18.944;2023-12-22T10:49:56;95739.78;;;3.53;79.12
63535;BME280;55128;50.230;18.944;2023-12-22T10:54:57;95745.44;;;3.05;82.16
63535;BME280;55128;50.230;18.944;2023-12-22T10:59:58;95725.56;;;3.15;82.85
63535;BME280;55128;50.230;18.944;2023-12-22T11:05:05;95731.13;;;2.96;83.77
63535;BME280;55128;50.230;18.944;2023-12-22T11:10:06;95721.28;;;3.28;84.31
63535;BME280;55128;50.230;18.944;2023-12-22T11:15:09;95712.50;;;3.42;82.48
63535;BME280;55128;50.230;18.944;2023-12-22T11:20:12;95708.09;;;3.16;82.97
63535;BME280;55128;50.230;18.944;2023-12-22T11:25:14;95710.50;;;3.19;83.09
63535;BME280;55128;50.230;18.944;2023-12-22T11:30:16;95707.28;;;3.28;84.08
63535;BME280;55128;50.230;18.944;2023-12-22T11:35:17;95700.84;;;3.86;84.53
63535;BME280;55128;50.230;18.944;2023-12-22T11:40:17;95699.97;;;4.13;83.05
63535;BME280;55128;50.230;18.944;2023-12-22T11:45:18;95689.34;;;4.40;82.86
63535;BME280;55128;50.230;18.944;2023-12-22T11:50:31;95670.00;;;4.54;82.33
63535;BME280;55128;50.230;18.944;2023-12-22T11:55:57;95681.13;;;4.58;80.78
63535;BME280;55128;50.230;18.944;2023-12-22T12:01:01;95683.81;;;4.82;80.77
63535;BME280;55128;50.230;18.944;2023-12-22T12:11:11;95681.13;;;4.58;77.94
63535;BME280;55128;50.230;18.944;2023-12-22T12:16:22;95670.22;;;4.51;76.51
63535;BME280;55128;50.230;18.944;2023-12-22T12:21:22;95662.09;;;4.67;74.99
63535;BME280;55128;50.230;18.944;2023-12-22T12:26:23;95668.25;;;4.55;73.83
63535;BME280;55128;50.230;18.944;2023-12-22T12:31:35;95675.06;;;4.44;72.05
63535;BME280;55128;50.230;18.944;2023-12-22T12:36:38;95651.75;;;4.27;71.78
63535;BME280;55128;50.230;18.944;2023-12-22T12:41:43;95663.00;;;4.16;71.21
63535;BME280;55128;50.230;18.944;2023-12-22T12:46:44;95683.38;;;4.00;72.69
63535;BME280;55128;50.230;18.944;2023-12-22T12:51:47;95683.47;;;3.58;76.26
63535;BME280;55128;50.230;18.944;2023-12-22T12:56:48;95691.38;;;3.31;78.69
63535;BME280;55128;50.230;18.944;2023-12-22T13:01:48;95698.94;;;3.36;78.63
63535;BME280;55128;50.230;18.944;2023-12-22T13:06:49;95712.31;;;3.45;77.60
63535;BME280;55128;50.230;18.944;2023-12-22T13:11:50;95724.81;;;3.27;76.84
63535;BME280;55128;50.230;18.944;2023-12-22T13:16:52;95721.28;;;3.28;76.32
63535;BME280;55128;50.230;18.944;2023-12-22T13:21:56;95711.09;;;3.64;74.80
63535;BME280;55128;50.230;18.944;2023-12-22T13:27:01;95728.53;;;3.65;74.23
63535;BME280;55128;50.230;18.944;2023-12-22T13:32:03;95725.63;;;3.82;72.55
63535;BME280;55128;50.230;18.944;2023-12-22T13:37:05;95723.34;;;3.91;69.39
63535;BME280;55128;50.230;18.944;2023-12-22T13:42:05;95724.75;;;3.69;67.72
63535;BME280;55128;50.230;18.944;2023-12-22T13:47:15;95711.22;;;3.62;66.13
63535;BME280;55128;50.230;18.944;2023-12-22T13:52:29;95722.03;;;3.43;65.49
63535;BME280;55128;50.230;18.944;2023-12-22T13:57:34;95714.66;;;3.36;64.91
63535;BME280;55128;50.230;18.944;2023-12-22T14:02:35;95714.03;;;3.32;64.52
63535;BME280;55128;50.230;18.944;2023-12-22T14:07:35;95737.44;;;3.35;65.09
63535;BME280;55128;50.230;18.944;2023-12-22T14:12:37;95726.75;;;3.38;63.82
63535;BME280;55128;50.230;18.944;2023-12-22T14:17:40;95719.06;;;3.35;64.31
63535;BME280;55128;50.230;18.944;2023-12-22T14:22:44;95726.19;;;3.33;63.53
63535;BME280;55128;50.230;18.944;2023-12-22T14:27:45;95733.06;;;3.48;63.52
63535;BME280;55128;50.230;18.944;2023-12-22T14:32:45;95725.19;;;3.48;64.00
63535;BME280;55128;50.230;18.944;2023-12-22T14:37:45;95723.88;;;3.56;62.84
63535;BME280;55128;50.230;18.944;2023-12-22T14:42:46;95736.09;;;3.42;62.90
63535;BME280;55128;50.230;18.944;2023-12-22T14:47:46;95741.59;;;3.52;62.21
63535;BME280;55128;50.230;18.944;2023-12-22T14:52:47;95753.41;;;3.45;61.63
63535;BME280;55128;50.230;18.944;2023-12-22T14:57:48;95750.13;;;3.41;63.40
63535;BME280;55128;50.230;18.944;2023-12-22T15:02:48;95752.41;;;3.60;62.45
63535;BME280;55128;50.230;18.944;2023-12-22T15:07:49;95755.53;;;3.53;62.88
63535;BME280;55128;50.230;18.944;2023-12-22T15:12:49;95755.97;;;3.59;63.37
63535;BME280;55128;50.230;18.944;2023-12-22T15:17:50;95751.94;;;3.68;63.59
63535;BME280;55128;50.230;18.944;2023-12-22T15:22:51;95754.59;;;3.54;63.81
63535;BME280;55128;50.230;18.944;2023-12-22T15:27:51;95744.38;;;3.36;64.20
63535;BME280;55128;50.230;18.944;2023-12-22T15:32:51;95752.41;;;3.33;62.77
63535;BME280;55128;50.230;18.944;2023-12-22T15:37:52;95754.13;;;3.20;63.71
63535;BME280;55128;50.230;18.944;2023-12-22T15:42:52;95761.97;;;3.34;62.97
63535;BME280;55128;50.230;18.944;2023-12-22T15:47:52;95763.09;;;3.30;61.37
63535;BME280;55128;50.230;18.944;2023-12-22T15:52:53;95763.09;;;3.30;60.45
63535;BME280;55128;50.230;18.944;2023-12-22T15:57:53;95764.28;;;3.39;59.92
63535;BME280;55128;50.230;18.944;2023-12-22T16:02:53;95773.94;;;3.38;59.55
63535;BME280;55128;50.230;18.944;2023-12-22T16:07:54;95780.47;;;3.45;59.06
63535;BME280;55128;50.230;18.944;2023-12-22T16:12:58;95785.91;;;3.42;59.87
63535;BME280;55128;50.230;18.944;2023-12-22T16:17:58;95800.44;;;3.34;60.29
63535;BME280;55128;50.230;18.944;2023-12-22T16:23:02;95804.84;;;3.33;60.91
63535;BME280;55128;50.230;18.944;2023-12-22T16:28:04;95806.13;;;3.40;60.81
63535;BME280;55128;50.230;18.944;2023-12-22T16:33:04;95793.88;;;3.26;61.17
63535;BME280;55128;50.230;18.944;2023-12-22T16:38:05;95790.16;;;3.16;61.84
63535;BME280;55128;50.230;18.944;2023-12-22T16:43:05;95796.53;;;3.12;62.49
63535;BME280;55128;50.230;18.944;2023-12-22T16:48:05;95817.03;;;3.05;62.47
63535;BME280;55128;50.230;18.944;2023-12-22T16:53:06;95823.94;;;3.21;62.64
63535;BME280;55128;50.230;18.944;2023-12-22T16:58:06;95815.91;;;3.09;62.77
63535;BME280;55128;50.230;18.944;2023-12-22T17:03:08;95810.47;;;3.13;63.24
63535;BME280;55128;50.230;18.944;2023-12-22T17:08:08;95811.63;;;3.08;62.33
63535;BME280;55128;50.230;18.944;2023-12-22T17:13:10;95823.97;;;3.06;62.49
63535;BME280;55128;50.230;18.944;2023-12-22T17:18:10;95813.28;;;3.24;62.59
63535;BME280;55128;50.230;18.944;2023-12-22T17:23:11;95831.41;;;3.41;62.38
63535;BME280;55128;50.230;18.944;2023-12-22T17:28:11;95826.00;;;3.30;62.52
63535;BME280;55128;50.230;18.944;2023-12-22T17:33:11;95835.25;;;3.36;62.55
63535;BME280;55128;50.230;18.944;2023-12-22T17:38:11;95833.28;;;3.39;62.98
63535;BME280;55128;50.230;18.944;2023-12-22T17:43:12;95832.63;;;3.36;63.23
63535;BME280;55128;50.230;18.944;2023-12-22T17:48:13;95819.81;;;3.31;63.35
63535;BME280;55128;50.230;18.944;2023-12-22T17:53:14;95835.19;;;3.08;63.93
63535;BME280;55128;50.230;18.944;2023-12-22T17:58:14;95841.91;;;2.98;64.21
63535;BME280;55128;50.230;18.944;2023-12-22T18:03:15;95836.59;;;3.00;64.31
63535;BME280;55128;50.230;18.944;2023-12-22T18:08:15;95846.06;;;3.02;64.71
63535;BME280;55128;50.230;18.944;2023-12-22T18:13:15;95834.81;;;3.15;64.81
63535;BME280;55128;50.230;18.944;2023-12-22T18:18:16;95831.53;;;3.11;65.02
63535;BME280;55128;50.230;18.944;2023-12-22T18:23:16;95838.94;;;3.04;65.32
63535;BME280;55128;50.230;18.944;2023-12-22T18:28:17;95837.34;;;3.02;65.82
63535;BME280;55128;50.230;18.944;2023-12-22T18:33:17;95845.19;;;3.02;65.16
63535;BME280;55128;50.230;18.944;2023-12-22T18:38:22;95852.31;;;3.14;64.71
63535;BME280;55128;50.230;18.944;2023-12-22T18:43:22;95842.03;;;3.11;65.30
63535;BME280;55128;50.230;18.944;2023-12-22T18:48:22;95834.81;;;3.00;66.74
63535;BME280;55128;50.230;18.944;2023-12-22T18:53:23;95829.94;;;2.94;67.63
63535;BME280;55128;50.230;18.944;2023-12-22T18:58:26;95829.59;;;2.86;68.38
63535;BME280;55128;50.230;18.944;2023-12-22T19:03:28;95834.53;;;2.90;69.31
63535;BME280;55128;50.230;18.944;2023-12-22T19:08:29;95830.50;;;2.85;68.98
63535;BME280;55128;50.230;18.944;2023-12-22T19:13:29;95836.13;;;2.93;68.60
63535;BME280;55128;50.230;18.944;2023-12-22T19:18:30;95831.16;;;2.88;68.96
63535;BME280;55128;50.230;18.944;2023-12-22T19:23:30;95844.66;;;2.97;68.44
63535;BME280;55128;50.230;18.944;2023-12-22T19:28:33;95850.63;;;2.84;67.76
63535;BME280;55128;50.230;18.944;2023-12-22T19:33:33;95850.13;;;2.78;67.40
63535;BME280;55128;50.230;18.944;2023-12-22T19:38:33;95861.94;;;2.70;67.51
63535;BME280;55128;50.230;18.944;2023-12-22T19:43:34;95862.69;;;2.72;67.69
63535;BME280;55128;50.230;18.944;2023-12-22T19:48:36;95883.50;;;2.60;68.67
63535;BME280;55128;50.230;18.944;2023-12-22T19:53:36;95879.66;;;2.51;69.12
63535;BME280;55128;50.230;18.944;2023-12-22T19:58:36;95882.34;;;2.35;69.65
63535;BME280;55128;50.230;18.944;2023-12-22T20:03:37;95860.53;;;2.34;69.75
63535;BME280;55128;50.230;18.944;2023-12-22T20:08:37;95862.75;;;2.26;69.67
63535;BME280;55128;50.230;18.944;2023-12-22T20:13:37;95871.34;;;2.28;69.21
63535;BME280;55128;50.230;18.944;2023-12-22T20:18:41;95854.28;;;2.07;68.97
63535;BME280;55128;50.230;18.944;2023-12-22T20:23:41;95866.41;;;2.08;69.00
63535;BME280;55128;50.230;18.944;2023-12-22T20:28:41;95863.81;;;2.08;68.96
63535;BME280;55128;50.230;18.944;2023-12-22T20:33:42;95864.16;;;2.02;68.30
63535;BME280;55128;50.230;18.944;2023-12-22T20:38:42;95882.53;;;2.16;67.70
63535;BME280;55128;50.230;18.944;2023-12-22T20:43:43;95868.66;;;2.00;68.33
63535;BME280;55128;50.230;18.944;2023-12-22T20:48:43;95861.38;;;2.05;67.76
63535;BME280;55128;50.230;18.944;2023-12-22T20:53:43;95856.16;;;2.05;67.06
63535;BME280;55128;50.230;18.944;2023-12-22T20:58:44;95862.81;;;2.10;67.60
63535;BME280;55128;50.230;18.944;2023-12-22T21:03:44;95880.84;;;2.15;66.91
63535;BME280;55128;50.230;18.944;2023-12-22T21:08:45;95879.34;;;2.11;66.88
63535;BME280;55128;50.230;18.944;2023-12-22T21:13:45;95876.19;;;2.20;66.50
63535;BME280;55128;50.230;18.944;2023-12-22T21:18:47;95885.41;;;2.42;65.75
63535;BME280;55128;50.230;18.944;2023-12-22T21:23:48;95877.56;;;2.42;65.98
63535;BME280;55128;50.230;18.944;2023-12-22T21:28:48;95884.13;;;2.49;65.66
63535;BME280;55128;50.230;18.944;2023-12-22T21:33:49;95883.38;;;2.47;65.65
63535;BME280;55128;50.230;18.944;2023-12-22T21:38:50;95886.03;;;2.61;64.85
63535;BME280;55128;50.230;18.944;2023-12-22T21:43:52;95888.47;;;2.64;64.91
63535;BME280;55128;50.230;18.944;2023-12-22T21:48:52;95876.31;;;2.63;64.50
63535;BME280;55128;50.230;18.944;2023-12-22T21:53:52;95879.78;;;2.64;64.65
63535;BME280;55128;50.230;18.944;2023-12-22T21:58:53;95871.22;;;2.46;64.63
63535;BME280;55128;50.230;18.944;2023-12-22T22:03:54;95869.25;;;2.35;65.22
63535;BME280;55128;50.230;18.944;2023-12-22T22:08:54;95852.78;;;2.33;65.54
63535;BME280;55128;50.230;18.944;2023-12-22T22:13:55;95880.31;;;2.24;65.96
63535;BME280;55128;50.230;18.944;2023-12-22T22:18:55;95886.75;;;2.19;65.88
63535;BME280;55128;50.230;18.944;2023-12-22T22:23:55;95890.84;;;1.92;66.65
63535;BME280;55128;50.230;18.944;2023-12-22T22:28:59;95888.28;;;2.07;66.44
63535;BME280;55128;50.230;18.944;2023-12-22T22:34:00;95892.03;;;1.87;66.90
63535;BME280;55128;50.230;18.944;2023-12-22T22:39:00;95895.81;;;1.81;67.27
63535;BME280;55128;50.230;18.944;2023-12-22T22:44:01;95893.72;;;1.72;67.43
63535;BME280;55128;50.230;18.944;2023-12-22T22:49:01;95904.00;;;1.75;67.61
63535;BME280;55128;50.230;18.944;2023-12-22T22:54:01;95885.97;;;1.86;67.60
63535;BME280;55128;50.230;18.944;2023-12-22T22:59:01;95863.53;;;1.82;67.82
63535;BME280;55128;50.230;18.944;2023-12-22T23:04:03;95892.94;;;1.86;66.94
63535;BME280;55128;50.230;18.944;2023-12-22T23:09:04;95899.59;;;2.07;66.40
63535;BME280;55128;50.230;18.944;2023-12-22T23:14:06;95916.13;;;2.08;66.48
63535;BME280;55128;50.230;18.944;2023-12-22T23:19:07;95903.72;;;2.11;66.59
63535;BME280;55128;50.230;18.944;2023-12-22T23:24:07;95897.25;;;2.03;67.17
63535;BME280;55128;50.230;18.944;2023-12-22T23:29:08;95901.28;;;2.08;66.71
63535;BME280;55128;50.230;18.944;2023-12-22T23:34:08;95886.06;;;2.15;66.59
63535;BME280;55128;50.230;18.944;2023-12-22T23:39:09;95902.84;;;2.27;66.24
63535;BME280;55128;50.230;18.944;2023-12-22T23:44:10;95904.38;;;2.31;66.55
63535;BME280;55128;50.230;18.944;2023-12-22T23:49:10;95913.53;;;2.38;66.32
63535;BME280;55128;50.230;18.944;2023-12-22T23:54:11;95926.03;;;2.49;65.70
63535;BME280;55128;50.230;18.944;2023-12-22T23:59:11;95922.41;;;2.36;65.95
